Peerless, Indiana
Current Conditions -  °F | °C
As of 7:53 PM on Thursday 27 Nov 2014 (Local Time) from KBMG Reporting Station
Light Snow Light Snow  
Wind Chill: 18°   Ceiling: 1500
Heat Index: 27°   Visibility: 5mi
Dew Point: 22°   Wind: 9mph
Humidity: 81%   Direction: 300°WNW
Pressure: 30.42"   Gusts: NA
Location:  38.8737°N, 86.4563°W
Report Text: KBMG 280053Z 30008KT 5SM -SN BKN015 BKN021 OVC027 M03/M06 A3042 RMK AO2 SLP309 P0000 T10281056
Loading
Personal Weather Stations






























Interactive Weather Map New forecast layout! Learn more

10-Day Weather Forecast

Advertisements
Track Severe Weather on mobile